Altus Air Force Base
KLTS : now visible

Airfield :











YOU CAN JOIN US ON...

 
LOGIN :

Register | Disclaimer

   EN    FR    IT 

 









Legend :    VFR   Marginal VFR   IFR   Intensive IFR   Very Intensive IFR
Visi :
Ceiling :
>= 8 km
>= 3000ft
5 to 8 km
1000 to 3000 ft
1500m to 5 km
500 to 1000 ft
800 to 1500m
200 to 500 ft
< 800m
< 200 ft
Symbols :   Thunderstorms  Fog  Heavy snow  Heavy precipitations  Wind > 20 kt






- Airport Elevation : 1382 ft


KLTS - Altus Air Force Base

CURRENT METAR :
  • 081456Z 17011KT 10SM CLR 10/02 A3033 RMK AO2A SLP273 T00950015 52012 $

EXPIRED METARs :
  • 081356Z 13006KT 10SM CLR 05/00 A3031 RMK AO2A SLP268 T00531001 $
  • 081256Z 12004KT 10SM CLR 03/M02 A3030 RMK AO2A SLP264 T00091032 $

TAF TAF KLTS
Valid from the 08 at 09:00 until the 09 at 15:00 UTC


080900Z 0809/0915 16008KT 9999 SCT200 510072 QNH3026INS
BECMG 0815/0816 19018G28KT 9999 FEW060 BKN200 510022 510502 QNH3024INS
BECMG 0822/0823 17015KT 9999 OVC200 510022 QNH3018INS
BECMG 0906/0907 17012KT 9999 SCT030 510022 QNH3012INS
BECMG 0909/0910 19015KT 9999 BKN015 510022 QNH3010INS
BECMG 0914/0915 19020G30KT 9999 BKN018 QNH3009INS TX22/0822Z TN00/0811Z
KZFW FIR / North America



MET'MAP, your aeronautical weather chart ! - Copyright ORBIFLY December 2007 - Disclaimer

ORBIFLY MET'MAP TEAM :

Programming & Development : Alexandra Zaïnal
Concept & original design : Baudouin d'Aumeries
Assistance for programming : Marc-Olivier Méhu
Technical & hardware support : Manuel Goepfert

Contact : metmap@orbifly.com




SOURCES & CREDITS :

   NOAA       Earth
Advisory